sensor_id;sensor_type;location;lat;lon;timestamp;P1;durP1;ratioP1;P2;durP2;ratioP2
77022;SDS011;65952;51.440;-2.054;2023-04-28T00:00:10;34.10;;;9.32;;
77022;SDS011;65952;51.440;-2.054;2023-04-28T00:02:36;29.38;;;9.80;;
77022;SDS011;65952;51.440;-2.054;2023-04-28T00:05:02;29.35;;;10.45;;
77022;SDS011;65952;51.440;-2.054;2023-04-28T00:07:27;24.45;;;9.50;;
77022;SDS011;65952;51.440;-2.054;2023-04-28T00:09:53;24.17;;;8.82;;
77022;SDS011;65952;51.440;-2.054;2023-04-28T00:12:18;23.05;;;9.57;;
77022;SDS011;65952;51.440;-2.054;2023-04-28T00:14:43;20.85;;;8.40;;
77022;SDS011;65952;51.440;-2.054;2023-04-28T00:17:09;22.48;;;9.35;;
77022;SDS011;65952;51.440;-2.054;2023-04-28T00:19:34;25.50;;;9.77;;
77022;SDS011;65952;51.440;-2.054;2023-04-28T00:22:00;23.17;;;8.80;;
77022;SDS011;65952;51.440;-2.054;2023-04-28T00:24:25;20.08;;;9.23;;
77022;SDS011;65952;51.440;-2.054;2023-04-28T00:26:51;18.98;;;7.80;;
77022;SDS011;65952;51.440;-2.054;2023-04-28T00:29:16;16.52;;;8.50;;
77022;SDS011;65952;51.440;-2.054;2023-04-28T00:31:43;15.23;;;7.30;;
77022;SDS011;65952;51.440;-2.054;2023-04-28T00:34:08;15.70;;;8.15;;
77022;SDS011;65952;51.440;-2.054;2023-04-28T00:36:38;14.20;;;6.50;;
77022;SDS011;65952;51.440;-2.054;2023-04-28T00:39:03;14.32;;;7.32;;
77022;SDS011;65952;51.440;-2.054;2023-04-28T00:41:28;15.45;;;7.13;;
77022;SDS011;65952;51.440;-2.054;2023-04-28T00:43:54;14.63;;;6.50;;
77022;SDS011;65952;51.440;-2.054;2023-04-28T00:46:20;14.95;;;7.53;;
77022;SDS011;65952;51.440;-2.054;2023-04-28T00:48:52;15.65;;;6.50;;
77022;SDS011;65952;51.440;-2.054;2023-04-28T00:51:17;15.38;;;6.43;;
77022;SDS011;65952;51.440;-2.054;2023-04-28T00:53:43;14.70;;;6.15;;
77022;SDS011;65952;51.440;-2.054;2023-04-28T00:56:08;11.90;;;5.85;;
77022;SDS011;65952;51.440;-2.054;2023-04-28T00:58:34;13.88;;;6.10;;
77022;SDS011;65952;51.440;-2.054;2023-04-28T01:01:06;15.52;;;6.53;;
77022;SDS011;65952;51.440;-2.054;2023-04-28T01:03:34;11.13;;;5.80;;
77022;SDS011;65952;51.440;-2.054;2023-04-28T01:06:05;11.75;;;6.30;;
77022;SDS011;65952;51.440;-2.054;2023-04-28T01:08:32;12.27;;;5.88;;
77022;SDS011;65952;51.440;-2.054;2023-04-28T01:10:58;12.25;;;5.68;;
77022;SDS011;65952;51.440;-2.054;2023-04-28T01:13:24;11.32;;;5.57;;
77022;SDS011;65952;51.440;-2.054;2023-04-28T01:15:50;11.15;;;5.50;;
77022;SDS011;65952;51.440;-2.054;2023-04-28T01:18:16;12.32;;;5.97;;
77022;SDS011;65952;51.440;-2.054;2023-04-28T01:20:42;12.43;;;5.43;;
77022;SDS011;65952;51.440;-2.054;2023-04-28T01:23:14;13.95;;;6.15;;
77022;SDS011;65952;51.440;-2.054;2023-04-28T01:25:41;12.98;;;5.82;;
77022;SDS011;65952;51.440;-2.054;2023-04-28T01:28:07;9.93;;;4.88;;
77022;SDS011;65952;51.440;-2.054;2023-04-28T01:30:33;10.95;;;5.47;;
77022;SDS011;65952;51.440;-2.054;2023-04-28T01:32:59;10.77;;;5.30;;
77022;SDS011;65952;51.440;-2.054;2023-04-28T01:35:25;11.05;;;4.53;;
77022;SDS011;65952;51.440;-2.054;2023-04-28T01:37:50;10.25;;;5.07;;
77022;SDS011;65952;51.440;-2.054;2023-04-28T01:40:16;10.25;;;4.40;;
77022;SDS011;65952;51.440;-2.054;2023-04-28T01:42:41;9.60;;;4.25;;
77022;SDS011;65952;51.440;-2.054;2023-04-28T01:45:07;8.95;;;4.60;;
77022;SDS011;65952;51.440;-2.054;2023-04-28T01:47:33;8.90;;;4.78;;
77022;SDS011;65952;51.440;-2.054;2023-04-28T01:49:58;9.98;;;4.72;;
77022;SDS011;65952;51.440;-2.054;2023-04-28T01:52:24;10.68;;;5.22;;
77022;SDS011;65952;51.440;-2.054;2023-04-28T01:54:51;9.30;;;4.55;;
77022;SDS011;65952;51.440;-2.054;2023-04-28T01:57:16;10.82;;;5.07;;
77022;SDS011;65952;51.440;-2.054;2023-04-28T01:59:42;11.05;;;5.25;;
77022;SDS011;65952;51.440;-2.054;2023-04-28T02:02:07;10.70;;;5.55;;
77022;SDS011;65952;51.440;-2.054;2023-04-28T02:04:32;12.90;;;5.38;;
77022;SDS011;65952;51.440;-2.054;2023-04-28T02:06:58;11.13;;;5.88;;
77022;SDS011;65952;51.440;-2.054;2023-04-28T02:09:23;11.95;;;5.80;;
77022;SDS011;65952;51.440;-2.054;2023-04-28T02:11:49;12.13;;;6.00;;
77022;SDS011;65952;51.440;-2.054;2023-04-28T02:14:15;12.00;;;5.95;;
77022;SDS011;65952;51.440;-2.054;2023-04-28T02:16:40;10.80;;;5.25;;
77022;SDS011;65952;51.440;-2.054;2023-04-28T02:19:05;9.80;;;5.05;;
77022;SDS011;65952;51.440;-2.054;2023-04-28T02:21:31;9.68;;;5.38;;
77022;SDS011;65952;51.440;-2.054;2023-04-28T02:23:56;9.63;;;5.00;;
77022;SDS011;65952;51.440;-2.054;2023-04-28T02:26:22;10.15;;;5.38;;
77022;SDS011;65952;51.440;-2.054;2023-04-28T02:28:48;12.02;;;5.68;;
77022;SDS011;65952;51.440;-2.054;2023-04-28T02:31:14;10.00;;;4.97;;
77022;SDS011;65952;51.440;-2.054;2023-04-28T02:33:39;9.00;;;4.82;;
77022;SDS011;65952;51.440;-2.054;2023-04-28T02:36:06;10.75;;;4.65;;
77022;SDS011;65952;51.440;-2.054;2023-04-28T02:38:32;9.65;;;4.68;;
77022;SDS011;65952;51.440;-2.054;2023-04-28T02:40:58;8.80;;;4.40;;
77022;SDS011;65952;51.440;-2.054;2023-04-28T02:43:25;8.88;;;4.30;;
77022;SDS011;65952;51.440;-2.054;2023-04-28T02:45:51;7.95;;;4.15;;
77022;SDS011;65952;51.440;-2.054;2023-04-28T02:48:17;9.23;;;4.55;;
77022;SDS011;65952;51.440;-2.054;2023-04-28T02:50:42;7.93;;;3.97;;
77022;SDS011;65952;51.440;-2.054;2023-04-28T02:53:10;7.63;;;3.67;;
77022;SDS011;65952;51.440;-2.054;2023-04-28T02:55:36;8.00;;;3.70;;
77022;SDS011;65952;51.440;-2.054;2023-04-28T02:58:01;8.32;;;3.90;;
77022;SDS011;65952;51.440;-2.054;2023-04-28T03:00:26;7.93;;;4.07;;
77022;SDS011;65952;51.440;-2.054;2023-04-28T03:02:52;6.15;;;3.45;;
77022;SDS011;65952;51.440;-2.054;2023-04-28T03:05:18;7.82;;;3.58;;
77022;SDS011;65952;51.440;-2.054;2023-04-28T03:07:44;8.65;;;3.63;;
77022;SDS011;65952;51.440;-2.054;2023-04-28T03:10:09;7.05;;;3.47;;
77022;SDS011;65952;51.440;-2.054;2023-04-28T03:12:34;8.15;;;4.13;;
77022;SDS011;65952;51.440;-2.054;2023-04-28T03:15:00;8.38;;;3.92;;
77022;SDS011;65952;51.440;-2.054;2023-04-28T03:17:26;7.50;;;3.67;;
77022;SDS011;65952;51.440;-2.054;2023-04-28T03:19:51;8.05;;;3.97;;
77022;SDS011;65952;51.440;-2.054;2023-04-28T03:22:17;7.10;;;3.47;;
77022;SDS011;65952;51.440;-2.054;2023-04-28T03:24:42;6.68;;;3.65;;
77022;SDS011;65952;51.440;-2.054;2023-04-28T03:27:07;6.88;;;3.20;;
77022;SDS011;65952;51.440;-2.054;2023-04-28T03:29:33;6.15;;;3.30;;
77022;SDS011;65952;51.440;-2.054;2023-04-28T03:31:58;8.32;;;3.55;;
77022;SDS011;65952;51.440;-2.054;2023-04-28T03:34:23;5.65;;;3.15;;
77022;SDS011;65952;51.440;-2.054;2023-04-28T03:36:49;6.57;;;3.05;;
77022;SDS011;65952;51.440;-2.054;2023-04-28T03:39:14;7.13;;;3.03;;
77022;SDS011;65952;51.440;-2.054;2023-04-28T03:41:40;6.13;;;2.95;;
77022;SDS011;65952;51.440;-2.054;2023-04-28T03:44:05;5.45;;;3.10;;
77022;SDS011;65952;51.440;-2.054;2023-04-28T03:46:31;5.10;;;2.65;;
77022;SDS011;65952;51.440;-2.054;2023-04-28T03:48:58;4.65;;;2.55;;
77022;SDS011;65952;51.440;-2.054;2023-04-28T03:51:24;5.53;;;2.78;;
77022;SDS011;65952;51.440;-2.054;2023-04-28T03:53:49;4.82;;;2.50;;
77022;SDS011;65952;51.440;-2.054;2023-04-28T03:56:15;5.15;;;2.50;;
77022;SDS011;65952;51.440;-2.054;2023-04-28T03:58:40;5.60;;;2.70;;
77022;SDS011;65952;51.440;-2.054;2023-04-28T04:01:06;6.47;;;2.70;;
77022;SDS011;65952;51.440;-2.054;2023-04-28T04:03:31;4.70;;;2.45;;
77022;SDS011;65952;51.440;-2.054;2023-04-28T04:05:57;4.70;;;2.40;;
77022;SDS011;65952;51.440;-2.054;2023-04-28T04:08:22;5.18;;;2.25;;
77022;SDS011;65952;51.440;-2.054;2023-04-28T04:10:48;6.45;;;2.55;;
77022;SDS011;65952;51.440;-2.054;2023-04-28T04:13:13;5.10;;;2.75;;
77022;SDS011;65952;51.440;-2.054;2023-04-28T04:15:39;4.13;;;2.42;;
77022;SDS011;65952;51.440;-2.054;2023-04-28T04:18:04;3.80;;;2.00;;
77022;SDS011;65952;51.440;-2.054;2023-04-28T04:20:30;3.90;;;2.20;;
77022;SDS011;65952;51.440;-2.054;2023-04-28T04:22:55;4.82;;;2.20;;
77022;SDS011;65952;51.440;-2.054;2023-04-28T04:25:20;4.97;;;2.15;;
77022;SDS011;65952;51.440;-2.054;2023-04-28T04:27:46;3.83;;;2.13;;
77022;SDS011;65952;51.440;-2.054;2023-04-28T04:30:11;5.63;;;2.50;;
77022;SDS011;65952;51.440;-2.054;2023-04-28T04:32:37;6.85;;;2.45;;
77022;SDS011;65952;51.440;-2.054;2023-04-28T04:35:03;5.28;;;2.85;;
77022;SDS011;65952;51.440;-2.054;2023-04-28T04:37:28;4.47;;;2.40;;
77022;SDS011;65952;51.440;-2.054;2023-04-28T04:39:54;3.92;;;2.20;;
77022;SDS011;65952;51.440;-2.054;2023-04-28T04:42:19;4.10;;;2.08;;
77022;SDS011;65952;51.440;-2.054;2023-04-28T04:44:45;5.65;;;2.70;;
77022;SDS011;65952;51.440;-2.054;2023-04-28T04:47:10;3.70;;;2.10;;
77022;SDS011;65952;51.440;-2.054;2023-04-28T04:49:36;3.22;;;1.75;;
77022;SDS011;65952;51.440;-2.054;2023-04-28T04:52:01;4.53;;;2.10;;
77022;SDS011;65952;51.440;-2.054;2023-04-28T04:54:27;3.85;;;2.15;;
77022;SDS011;65952;51.440;-2.054;2023-04-28T05:00:22;3.25;;;1.70;;
77022;SDS011;65952;51.440;-2.054;2023-04-28T05:02:47;3.90;;;1.98;;
77022;SDS011;65952;51.440;-2.054;2023-04-28T05:05:13;3.17;;;1.88;;
77022;SDS011;65952;51.440;-2.054;2023-04-28T05:07:38;3.50;;;1.80;;
77022;SDS011;65952;51.440;-2.054;2023-04-28T05:10:04;4.25;;;1.80;;
77022;SDS011;65952;51.440;-2.054;2023-04-28T05:12:31;3.22;;;1.80;;
77022;SDS011;65952;51.440;-2.054;2023-04-28T05:14:56;3.50;;;1.80;;
77022;SDS011;65952;51.440;-2.054;2023-04-28T05:17:22;4.15;;;1.98;;
77022;SDS011;65952;51.440;-2.054;2023-04-28T05:19:47;3.58;;;1.73;;
77022;SDS011;65952;51.440;-2.054;2023-04-28T05:22:13;4.10;;;1.90;;
77022;SDS011;65952;51.440;-2.054;2023-04-28T05:24:38;3.00;;;1.83;;
77022;SDS011;65952;51.440;-2.054;2023-04-28T05:27:04;3.35;;;1.80;;
77022;SDS011;65952;51.440;-2.054;2023-04-28T05:29:29;3.38;;;1.73;;
77022;SDS011;65952;51.440;-2.054;2023-04-28T05:31:55;3.58;;;1.83;;
77022;SDS011;65952;51.440;-2.054;2023-04-28T05:34:20;3.03;;;1.75;;
77022;SDS011;65952;51.440;-2.054;2023-04-28T05:36:46;3.90;;;1.88;;
77022;SDS011;65952;51.440;-2.054;2023-04-28T05:39:11;3.40;;;1.77;;
77022;SDS011;65952;51.440;-2.054;2023-04-28T05:41:37;3.33;;;1.63;;
77022;SDS011;65952;51.440;-2.054;2023-04-28T05:44:02;4.03;;;1.55;;
77022;SDS011;65952;51.440;-2.054;2023-04-28T05:46:29;3.83;;;1.80;;
77022;SDS011;65952;51.440;-2.054;2023-04-28T05:48:55;3.17;;;1.58;;
77022;SDS011;65952;51.440;-2.054;2023-04-28T05:51:21;2.58;;;1.30;;
77022;SDS011;65952;51.440;-2.054;2023-04-28T05:53:47;2.40;;;1.20;;
77022;SDS011;65952;51.440;-2.054;2023-04-28T05:56:13;1.63;;;1.17;;
77022;SDS011;65952;51.440;-2.054;2023-04-28T05:58:40;3.10;;;1.30;;
77022;SDS011;65952;51.440;-2.054;2023-04-28T06:01:08;1.35;;;1.00;;
77022;SDS011;65952;51.440;-2.054;2023-04-28T06:03:33;1.92;;;1.13;;
77022;SDS011;65952;51.440;-2.054;2023-04-28T06:05:59;4.70;;;1.27;;
77022;SDS011;65952;51.440;-2.054;2023-04-28T06:08:25;2.13;;;1.20;;
77022;SDS011;65952;51.440;-2.054;2023-04-28T06:10:50;2.90;;;1.20;;
77022;SDS011;65952;51.440;-2.054;2023-04-28T06:13:16;0.88;;;0.80;;
77022;SDS011;65952;51.440;-2.054;2023-04-28T06:15:41;1.58;;;1.05;;
77022;SDS011;65952;51.440;-2.054;2023-04-28T06:18:07;1.88;;;1.10;;
77022;SDS011;65952;51.440;-2.054;2023-04-28T06:20:33;2.55;;;1.10;;
77022;SDS011;65952;51.440;-2.054;2023-04-28T06:22:59;1.70;;;1.10;;
77022;SDS011;65952;51.440;-2.054;2023-04-28T06:25:25;1.77;;;0.90;;
77022;SDS011;65952;51.440;-2.054;2023-04-28T06:27:50;1.48;;;0.90;;
77022;SDS011;65952;51.440;-2.054;2023-04-28T06:30:16;1.33;;;1.02;;
77022;SDS011;65952;51.440;-2.054;2023-04-28T06:32:43;1.13;;;0.90;;
77022;SDS011;65952;51.440;-2.054;2023-04-28T06:35:09;2.00;;;1.00;;
77022;SDS011;65952;51.440;-2.054;2023-04-28T06:37:34;1.77;;;1.10;;
77022;SDS011;65952;51.440;-2.054;2023-04-28T06:40:00;0.70;;;0.70;;
77022;SDS011;65952;51.440;-2.054;2023-04-28T06:42:25;0.88;;;0.88;;
77022;SDS011;65952;51.440;-2.054;2023-04-28T06:44:51;2.38;;;1.10;;
77022;SDS011;65952;51.440;-2.054;2023-04-28T06:47:16;1.65;;;1.10;;
77022;SDS011;65952;51.440;-2.054;2023-04-28T06:49:42;1.05;;;0.90;;
77022;SDS011;65952;51.440;-2.054;2023-04-28T06:52:08;1.10;;;1.00;;
77022;SDS011;65952;51.440;-2.054;2023-04-28T06:54:34;1.15;;;1.05;;
77022;SDS011;65952;51.440;-2.054;2023-04-28T06:57:00;0.98;;;0.90;;
77022;SDS011;65952;51.440;-2.054;2023-04-28T06:59:26;1.52;;;1.10;;
77022;SDS011;65952;51.440;-2.054;2023-04-28T07:01:51;1.80;;;1.00;;
77022;SDS011;65952;51.440;-2.054;2023-04-28T07:04:17;1.75;;;1.10;;
77022;SDS011;65952;51.440;-2.054;2023-04-28T07:06:42;1.58;;;1.13;;
77022;SDS011;65952;51.440;-2.054;2023-04-28T07:09:07;1.23;;;1.00;;
77022;SDS011;65952;51.440;-2.054;2023-04-28T07:11:33;2.53;;;1.33;;
77022;SDS011;65952;51.440;-2.054;2023-04-28T07:13:58;2.70;;;1.30;;
77022;SDS011;65952;51.440;-2.054;2023-04-28T07:16:24;2.53;;;1.48;;
77022;SDS011;65952;51.440;-2.054;2023-04-28T07:18:49;3.00;;;1.30;;
77022;SDS011;65952;51.440;-2.054;2023-04-28T07:21:15;2.60;;;1.42;;
77022;SDS011;65952;51.440;-2.054;2023-04-28T07:23:40;2.60;;;1.60;;
77022;SDS011;65952;51.440;-2.054;2023-04-28T07:26:07;3.45;;;1.63;;
77022;SDS011;65952;51.440;-2.054;2023-04-28T07:28:33;2.67;;;1.60;;
77022;SDS011;65952;51.440;-2.054;2023-04-28T07:30:59;2.67;;;1.45;;
77022;SDS011;65952;51.440;-2.054;2023-04-28T07:33:24;3.17;;;1.63;;
77022;SDS011;65952;51.440;-2.054;2023-04-28T07:35:49;4.20;;;1.90;;
77022;SDS011;65952;51.440;-2.054;2023-04-28T07:38:16;3.97;;;2.03;;
77022;SDS011;65952;51.440;-2.054;2023-04-28T07:40:42;4.30;;;2.38;;
77022;SDS011;65952;51.440;-2.054;2023-04-28T07:43:08;3.78;;;2.10;;
77022;SDS011;65952;51.440;-2.054;2023-04-28T07:45:37;4.80;;;2.75;;
77022;SDS011;65952;51.440;-2.054;2023-04-28T07:48:03;4.68;;;2.63;;
77022;SDS011;65952;51.440;-2.054;2023-04-28T07:50:29;5.03;;;2.90;;
77022;SDS011;65952;51.440;-2.054;2023-04-28T07:52:54;5.03;;;2.83;;
77022;SDS011;65952;51.440;-2.054;2023-04-28T07:55:20;5.95;;;3.30;;
77022;SDS011;65952;51.440;-2.054;2023-04-28T07:57:45;8.18;;;3.50;;
77022;SDS011;65952;51.440;-2.054;2023-04-28T08:00:11;6.45;;;3.55;;
77022;SDS011;65952;51.440;-2.054;2023-04-28T08:02:37;6.70;;;3.80;;
77022;SDS011;65952;51.440;-2.054;2023-04-28T08:05:02;8.50;;;4.03;;
77022;SDS011;65952;51.440;-2.054;2023-04-28T08:07:28;8.07;;;4.13;;
77022;SDS011;65952;51.440;-2.054;2023-04-28T08:09:53;7.88;;;4.45;;
77022;SDS011;65952;51.440;-2.054;2023-04-28T08:12:19;7.88;;;4.50;;
77022;SDS011;65952;51.440;-2.054;2023-04-28T08:14:45;7.43;;;4.68;;
77022;SDS011;65952;51.440;-2.054;2023-04-28T08:17:12;7.80;;;4.75;;
77022;SDS011;65952;51.440;-2.054;2023-04-28T08:19:37;9.88;;;4.85;;
77022;SDS011;65952;51.440;-2.054;2023-04-28T08:22:03;8.07;;;4.97;;
77022;SDS011;65952;51.440;-2.054;2023-04-28T08:24:31;8.50;;;4.68;;
77022;SDS011;65952;51.440;-2.054;2023-04-28T08:26:59;9.23;;;4.65;;
77022;SDS011;65952;51.440;-2.054;2023-04-28T08:29:27;8.73;;;4.70;;
77022;SDS011;65952;51.440;-2.054;2023-04-28T08:31:56;7.13;;;4.15;;
77022;SDS011;65952;51.440;-2.054;2023-04-28T08:34:22;7.57;;;4.50;;
77022;SDS011;65952;51.440;-2.054;2023-04-28T08:36:48;10.13;;;4.32;;
77022;SDS011;65952;51.440;-2.054;2023-04-28T08:39:13;7.35;;;4.32;;
77022;SDS011;65952;51.440;-2.054;2023-04-28T08:41:40;6.75;;;4.07;;
77022;SDS011;65952;51.440;-2.054;2023-04-28T08:44:07;7.70;;;4.18;;
77022;SDS011;65952;51.440;-2.054;2023-04-28T08:46:33;7.50;;;4.13;;
77022;SDS011;65952;51.440;-2.054;2023-04-28T08:49:00;8.27;;;3.85;;
77022;SDS011;65952;51.440;-2.054;2023-04-28T08:51:34;6.22;;;3.30;;
77022;SDS011;65952;51.440;-2.054;2023-04-28T08:54:06;6.53;;;3.40;;
77022;SDS011;65952;51.440;-2.054;2023-04-28T08:56:32;5.63;;;3.00;;
77022;SDS011;65952;51.440;-2.054;2023-04-28T08:59:02;5.05;;;2.60;;
77022;SDS011;65952;51.440;-2.054;2023-04-28T09:01:29;5.32;;;2.58;;
77022;SDS011;65952;51.440;-2.054;2023-04-28T09:03:59;4.93;;;2.72;;
77022;SDS011;65952;51.440;-2.054;2023-04-28T09:06:26;4.72;;;2.70;;
77022;SDS011;65952;51.440;-2.054;2023-04-28T09:08:56;4.85;;;2.80;;
77022;SDS011;65952;51.440;-2.054;2023-04-28T09:11:52;7.38;;;2.92;;
77022;SDS011;65952;51.440;-2.054;2023-04-28T09:14:19;5.80;;;2.85;;
77022;SDS011;65952;51.440;-2.054;2023-04-28T09:16:45;5.45;;;3.30;;
77022;SDS011;65952;51.440;-2.054;2023-04-28T09:19:11;4.55;;;2.42;;
77022;SDS011;65952;51.440;-2.054;2023-04-28T09:21:46;4.60;;;2.60;;
77022;SDS011;65952;51.440;-2.054;2023-04-28T09:24:24;7.88;;;3.10;;
77022;SDS011;65952;51.440;-2.054;2023-04-28T09:26:50;6.18;;;2.90;;
77022;SDS011;65952;51.440;-2.054;2023-04-28T09:29:15;5.78;;;3.25;;
77022;SDS011;65952;51.440;-2.054;2023-04-28T09:31:41;5.95;;;3.00;;
77022;SDS011;65952;51.440;-2.054;2023-04-28T09:34:07;6.43;;;3.50;;
77022;SDS011;65952;51.440;-2.054;2023-04-28T09:36:33;6.03;;;3.70;;
77022;SDS011;65952;51.440;-2.054;2023-04-28T09:38:59;5.65;;;3.35;;
77022;SDS011;65952;51.440;-2.054;2023-04-28T09:41:43;6.57;;;3.60;;
77022;SDS011;65952;51.440;-2.054;2023-04-28T09:44:13;6.45;;;3.50;;
77022;SDS011;65952;51.440;-2.054;2023-04-28T09:46:40;6.22;;;3.50;;
77022;SDS011;65952;51.440;-2.054;2023-04-28T09:49:06;6.65;;;4.10;;
77022;SDS011;65952;51.440;-2.054;2023-04-28T09:51:32;5.63;;;3.25;;
77022;SDS011;65952;51.440;-2.054;2023-04-28T09:53:59;6.13;;;3.65;;
77022;SDS011;65952;51.440;-2.054;2023-04-28T09:56:27;7.85;;;3.92;;
77022;SDS011;65952;51.440;-2.054;2023-04-28T09:58:54;7.28;;;3.65;;
77022;SDS011;65952;51.440;-2.054;2023-04-28T10:01:26;6.00;;;3.50;;
77022;SDS011;65952;51.440;-2.054;2023-04-28T10:04:04;6.28;;;3.72;;
77022;SDS011;65952;51.440;-2.054;2023-04-28T10:06:32;8.30;;;4.25;;
77022;SDS011;65952;51.440;-2.054;2023-04-28T10:09:00;7.95;;;4.05;;
77022;SDS011;65952;51.440;-2.054;2023-04-28T10:11:26;7.80;;;3.67;;
77022;SDS011;65952;51.440;-2.054;2023-04-28T10:13:52;6.50;;;3.75;;
77022;SDS011;65952;51.440;-2.054;2023-04-28T10:16:18;6.70;;;3.97;;
77022;SDS011;65952;51.440;-2.054;2023-04-28T10:18:44;8.18;;;4.05;;
77022;SDS011;65952;51.440;-2.054;2023-04-28T10:21:11;7.03;;;3.55;;
77022;SDS011;65952;51.440;-2.054;2023-04-28T10:29:31;6.68;;;3.33;;
77022;SDS011;65952;51.440;-2.054;2023-04-28T10:34:44;5.03;;;3.08;;
77022;SDS011;65952;51.440;-2.054;2023-04-28T10:37:09;7.13;;;3.70;;
77022;SDS011;65952;51.440;-2.054;2023-04-28T10:39:35;6.75;;;3.65;;
77022;SDS011;65952;51.440;-2.054;2023-04-28T10:42:01;6.70;;;3.38;;
77022;SDS011;65952;51.440;-2.054;2023-04-28T10:55:26;4.90;;;2.77;;
77022;SDS011;65952;51.440;-2.054;2023-04-28T11:00:44;4.40;;;2.17;;
77022;SDS011;65952;51.440;-2.054;2023-04-28T11:06:21;4.25;;;2.10;;
77022;SDS011;65952;51.440;-2.054;2023-04-28T11:08:50;4.25;;;2.13;;
77022;SDS011;65952;51.440;-2.054;2023-04-28T11:11:17;3.38;;;1.98;;
77022;SDS011;65952;51.440;-2.054;2023-04-28T11:13:44;4.28;;;2.10;;
77022;SDS011;65952;51.440;-2.054;2023-04-28T11:16:14;4.35;;;2.10;;
77022;SDS011;65952;51.440;-2.054;2023-04-28T11:21:17;4.10;;;2.10;;
77022;SDS011;65952;51.440;-2.054;2023-04-28T11:23:44;4.63;;;2.30;;
77022;SDS011;65952;51.440;-2.054;2023-04-28T11:26:10;5.85;;;2.42;;
77022;SDS011;65952;51.440;-2.054;2023-04-28T11:28:35;4.28;;;2.40;;
77022;SDS011;65952;51.440;-2.054;2023-04-28T11:31:11;3.95;;;2.08;;
77022;SDS011;65952;51.440;-2.054;2023-04-28T11:33:37;5.07;;;2.40;;
77022;SDS011;65952;51.440;-2.054;2023-04-28T11:36:03;3.90;;;2.10;;
77022;SDS011;65952;51.440;-2.054;2023-04-28T11:38:29;4.93;;;1.83;;
77022;SDS011;65952;51.440;-2.054;2023-04-28T11:40:57;3.85;;;1.92;;
77022;SDS011;65952;51.440;-2.054;2023-04-28T11:43:29;4.13;;;2.15;;
77022;SDS011;65952;51.440;-2.054;2023-04-28T11:45:55;4.15;;;2.00;;
77022;SDS011;65952;51.440;-2.054;2023-04-28T11:48:21;3.25;;;1.90;;
77022;SDS011;65952;51.440;-2.054;2023-04-28T11:50:47;4.13;;;1.90;;
77022;SDS011;65952;51.440;-2.054;2023-04-28T11:53:12;3.97;;;2.20;;
77022;SDS011;65952;51.440;-2.054;2023-04-28T11:55:38;3.58;;;1.88;;
77022;SDS011;65952;51.440;-2.054;2023-04-28T11:58:16;4.30;;;1.80;;
77022;SDS011;65952;51.440;-2.054;2023-04-28T12:00:43;4.18;;;1.90;;
77022;SDS011;65952;51.440;-2.054;2023-04-28T12:03:09;3.08;;;1.60;;
77022;SDS011;65952;51.440;-2.054;2023-04-28T12:05:34;3.60;;;1.60;;
77022;SDS011;65952;51.440;-2.054;2023-04-28T12:08:08;3.00;;;1.50;;
77022;SDS011;65952;51.440;-2.054;2023-04-28T12:10:33;3.47;;;1.77;;
77022;SDS011;65952;51.440;-2.054;2023-04-28T12:13:13;3.17;;;1.60;;
77022;SDS011;65952;51.440;-2.054;2023-04-28T12:15:39;6.63;;;1.73;;
77022;SDS011;65952;51.440;-2.054;2023-04-28T12:18:09;4.22;;;1.83;;
77022;SDS011;65952;51.440;-2.054;2023-04-28T12:20:36;2.38;;;1.40;;
77022;SDS011;65952;51.440;-2.054;2023-04-28T12:23:02;3.10;;;1.60;;
77022;SDS011;65952;51.440;-2.054;2023-04-28T12:25:29;3.30;;;1.60;;
77022;SDS011;65952;51.440;-2.054;2023-04-28T12:28:05;2.50;;;1.38;;
77022;SDS011;65952;51.440;-2.054;2023-04-28T12:30:33;3.35;;;1.60;;
77022;SDS011;65952;51.440;-2.054;2023-04-28T12:32:59;2.70;;;1.50;;
77022;SDS011;65952;51.440;-2.054;2023-04-28T12:35:25;2.95;;;1.50;;
77022;SDS011;65952;51.440;-2.054;2023-04-28T12:37:52;2.35;;;1.33;;
77022;SDS011;65952;51.440;-2.054;2023-04-28T12:40:19;3.22;;;1.50;;
77022;SDS011;65952;51.440;-2.054;2023-04-28T12:42:44;3.10;;;1.45;;
77022;SDS011;65952;51.440;-2.054;2023-04-28T12:45:10;3.22;;;1.67;;
77022;SDS011;65952;51.440;-2.054;2023-04-28T12:47:35;3.67;;;1.40;;
77022;SDS011;65952;51.440;-2.054;2023-04-28T12:50:03;3.95;;;1.60;;
77022;SDS011;65952;51.440;-2.054;2023-04-28T12:52:28;3.00;;;1.50;;
77022;SDS011;65952;51.440;-2.054;2023-04-28T12:54:57;5.45;;;1.60;;
77022;SDS011;65952;51.440;-2.054;2023-04-28T12:57:22;2.67;;;1.50;;
77022;SDS011;65952;51.440;-2.054;2023-04-28T12:59:47;2.60;;;1.50;;
77022;SDS011;65952;51.440;-2.054;2023-04-28T13:02:13;2.67;;;1.40;;
77022;SDS011;65952;51.440;-2.054;2023-04-28T13:04:39;2.95;;;1.58;;
77022;SDS011;65952;51.440;-2.054;2023-04-28T13:07:06;2.60;;;1.40;;
77022;SDS011;65952;51.440;-2.054;2023-04-28T13:09:32;3.50;;;1.70;;
77022;SDS011;65952;51.440;-2.054;2023-04-28T13:11:58;2.70;;;1.48;;
77022;SDS011;65952;51.440;-2.054;2023-04-28T13:14:24;2.90;;;1.50;;
77022;SDS011;65952;51.440;-2.054;2023-04-28T13:16:51;2.60;;;1.50;;
77022;SDS011;65952;51.440;-2.054;2023-04-28T13:19:16;2.75;;;1.45;;
77022;SDS011;65952;51.440;-2.054;2023-04-28T13:21:42;3.45;;;1.50;;
77022;SDS011;65952;51.440;-2.054;2023-04-28T13:24:09;3.30;;;1.67;;
77022;SDS011;65952;51.440;-2.054;2023-04-28T13:26:34;2.55;;;1.50;;
77022;SDS011;65952;51.440;-2.054;2023-04-28T13:29:01;3.40;;;1.60;;
77022;SDS011;65952;51.440;-2.054;2023-04-28T13:31:28;4.07;;;1.90;;
77022;SDS011;65952;51.440;-2.054;2023-04-28T13:33:54;7.03;;;3.30;;
77022;SDS011;65952;51.440;-2.054;2023-04-28T13:36:36;5.45;;;3.20;;
77022;SDS011;65952;51.440;-2.054;2023-04-28T13:39:01;5.88;;;3.33;;
77022;SDS011;65952;51.440;-2.054;2023-04-28T13:41:26;6.00;;;3.20;;
77022;SDS011;65952;51.440;-2.054;2023-04-28T13:43:52;5.68;;;3.38;;
77022;SDS011;65952;51.440;-2.054;2023-04-28T13:46:18;5.60;;;3.08;;
77022;SDS011;65952;51.440;-2.054;2023-04-28T13:48:43;5.63;;;3.13;;
77022;SDS011;65952;51.440;-2.054;2023-04-28T13:51:09;5.55;;;2.92;;
77022;SDS011;65952;51.440;-2.054;2023-04-28T13:53:35;5.53;;;3.20;;
77022;SDS011;65952;51.440;-2.054;2023-04-28T13:56:05;8.30;;;3.33;;
77022;SDS011;65952;51.440;-2.054;2023-04-28T13:58:31;5.43;;;2.92;;
77022;SDS011;65952;51.440;-2.054;2023-04-28T14:00:57;6.15;;;3.35;;
77022;SDS011;65952;51.440;-2.054;2023-04-28T14:03:23;6.00;;;3.75;;
77022;SDS011;65952;51.440;-2.054;2023-04-28T14:05:53;7.75;;;3.63;;
77022;SDS011;65952;51.440;-2.054;2023-04-28T14:08:20;8.52;;;4.13;;
77022;SDS011;65952;51.440;-2.054;2023-04-28T14:10:46;5.82;;;3.70;;
77022;SDS011;65952;51.440;-2.054;2023-04-28T14:13:12;8.02;;;4.22;;
77022;SDS011;65952;51.440;-2.054;2023-04-28T14:15:38;7.47;;;4.50;;
77022;SDS011;65952;51.440;-2.054;2023-04-28T14:18:04;7.65;;;4.00;;
77022;SDS011;65952;51.440;-2.054;2023-04-28T14:20:30;8.18;;;4.45;;
77022;SDS011;65952;51.440;-2.054;2023-04-28T14:22:56;6.20;;;3.67;;
77022;SDS011;65952;51.440;-2.054;2023-04-28T14:25:22;7.63;;;4.70;;
77022;SDS011;65952;51.440;-2.054;2023-04-28T14:27:48;8.90;;;4.90;;
77022;SDS011;65952;51.440;-2.054;2023-04-28T14:30:14;9.98;;;5.10;;
77022;SDS011;65952;51.440;-2.054;2023-04-28T14:32:40;10.07;;;5.00;;
77022;SDS011;65952;51.440;-2.054;2023-04-28T14:35:06;8.20;;;4.82;;
77022;SDS011;65952;51.440;-2.054;2023-04-28T14:37:32;8.45;;;4.20;;
77022;SDS011;65952;51.440;-2.054;2023-04-28T14:39:58;8.23;;;4.30;;
77022;SDS011;65952;51.440;-2.054;2023-04-28T14:42:28;7.80;;;4.50;;
77022;SDS011;65952;51.440;-2.054;2023-04-28T14:44:57;8.30;;;3.85;;
77022;SDS011;65952;51.440;-2.054;2023-04-28T14:47:23;7.40;;;4.32;;
77022;SDS011;65952;51.440;-2.054;2023-04-28T14:49:51;6.55;;;3.78;;
77022;SDS011;65952;51.440;-2.054;2023-04-28T14:52:18;7.07;;;4.00;;
77022;SDS011;65952;51.440;-2.054;2023-04-28T14:54:47;7.43;;;3.53;;
77022;SDS011;65952;51.440;-2.054;2023-04-28T14:57:13;6.32;;;3.47;;
77022;SDS011;65952;51.440;-2.054;2023-04-28T14:59:38;5.97;;;3.42;;